sensor_id;sensor_type;location;lat;lon;timestamp;P1;durP1;ratioP1;P2;durP2;ratioP2
2860;SDS011;1438;50.922;6.704;2023-12-07T00:02:08;30.53;;;18.50;;
2860;SDS011;1438;50.922;6.704;2023-12-07T00:04:34;28.20;;;18.30;;
2860;SDS011;1438;50.922;6.704;2023-12-07T00:07:00;30.38;;;18.23;;
2860;SDS011;1438;50.922;6.704;2023-12-07T00:09:26;28.27;;;19.63;;
2860;SDS011;1438;50.922;6.704;2023-12-07T00:11:52;30.92;;;18.85;;
2860;SDS011;1438;50.922;6.704;2023-12-07T00:14:18;29.45;;;18.83;;
2860;SDS011;1438;50.922;6.704;2023-12-07T00:16:44;28.48;;;17.95;;
2860;SDS011;1438;50.922;6.704;2023-12-07T00:19:10;31.77;;;19.33;;
2860;SDS011;1438;50.922;6.704;2023-12-07T00:21:36;38.30;;;18.93;;
2860;SDS011;1438;50.922;6.704;2023-12-07T00:24:02;32.70;;;19.37;;
2860;SDS011;1438;50.922;6.704;2023-12-07T00:26:27;30.85;;;19.80;;
2860;SDS011;1438;50.922;6.704;2023-12-07T00:28:53;32.57;;;18.67;;
2860;SDS011;1438;50.922;6.704;2023-12-07T00:31:19;28.63;;;18.60;;
2860;SDS011;1438;50.922;6.704;2023-12-07T00:33:45;29.15;;;19.05;;
2860;SDS011;1438;50.922;6.704;2023-12-07T00:36:11;30.05;;;17.98;;
2860;SDS011;1438;50.922;6.704;2023-12-07T00:38:37;30.23;;;17.60;;
2860;SDS011;1438;50.922;6.704;2023-12-07T00:41:03;28.23;;;18.30;;
2860;SDS011;1438;50.922;6.704;2023-12-07T00:43:29;28.07;;;17.53;;
2860;SDS011;1438;50.922;6.704;2023-12-07T00:45:55;30.60;;;19.53;;
2860;SDS011;1438;50.922;6.704;2023-12-07T00:48:22;30.52;;;18.85;;
2860;SDS011;1438;50.922;6.704;2023-12-07T00:50:48;28.43;;;19.00;;
2860;SDS011;1438;50.922;6.704;2023-12-07T00:53:14;26.27;;;17.80;;
2860;SDS011;1438;50.922;6.704;2023-12-07T00:55:40;29.80;;;17.10;;
2860;SDS011;1438;50.922;6.704;2023-12-07T00:58:06;29.93;;;18.60;;
2860;SDS011;1438;50.922;6.704;2023-12-07T01:00:32;30.48;;;17.95;;
2860;SDS011;1438;50.922;6.704;2023-12-07T01:02:58;34.47;;;20.17;;
2860;SDS011;1438;50.922;6.704;2023-12-07T01:05:24;28.33;;;19.25;;
2860;SDS011;1438;50.922;6.704;2023-12-07T01:07:50;29.38;;;18.67;;
2860;SDS011;1438;50.922;6.704;2023-12-07T01:10:16;33.85;;;19.38;;
2860;SDS011;1438;50.922;6.704;2023-12-07T01:12:42;29.83;;;16.87;;
2860;SDS011;1438;50.922;6.704;2023-12-07T01:15:08;28.10;;;16.77;;
2860;SDS011;1438;50.922;6.704;2023-12-07T01:17:34;29.45;;;17.77;;
2860;SDS011;1438;50.922;6.704;2023-12-07T01:20:00;34.63;;;19.02;;
2860;SDS011;1438;50.922;6.704;2023-12-07T01:22:28;31.08;;;18.80;;
2860;SDS011;1438;50.922;6.704;2023-12-07T01:24:54;34.77;;;19.07;;
2860;SDS011;1438;50.922;6.704;2023-12-07T01:27:20;31.27;;;17.70;;
2860;SDS011;1438;50.922;6.704;2023-12-07T01:29:46;29.50;;;17.77;;
2860;SDS011;1438;50.922;6.704;2023-12-07T01:32:12;34.60;;;19.35;;
2860;SDS011;1438;50.922;6.704;2023-12-07T01:34:39;28.98;;;16.95;;
2860;SDS011;1438;50.922;6.704;2023-12-07T01:37:05;29.23;;;16.77;;
2860;SDS011;1438;50.922;6.704;2023-12-07T01:39:31;28.20;;;16.67;;
2860;SDS011;1438;50.922;6.704;2023-12-07T01:41:58;32.65;;;17.60;;
2860;SDS011;1438;50.922;6.704;2023-12-07T01:44:24;28.08;;;18.05;;
2860;SDS011;1438;50.922;6.704;2023-12-07T01:46:50;29.95;;;18.92;;
2860;SDS011;1438;50.922;6.704;2023-12-07T01:49:16;32.38;;;17.58;;
2860;SDS011;1438;50.922;6.704;2023-12-07T01:51:42;32.83;;;20.67;;
2860;SDS011;1438;50.922;6.704;2023-12-07T01:54:08;30.30;;;17.50;;
2860;SDS011;1438;50.922;6.704;2023-12-07T01:56:34;30.77;;;17.70;;
2860;SDS011;1438;50.922;6.704;2023-12-07T01:59:00;30.92;;;18.45;;
2860;SDS011;1438;50.922;6.704;2023-12-07T02:01:27;27.52;;;16.35;;
2860;SDS011;1438;50.922;6.704;2023-12-07T02:03:53;32.42;;;18.02;;
2860;SDS011;1438;50.922;6.704;2023-12-07T02:06:19;30.88;;;17.10;;
2860;SDS011;1438;50.922;6.704;2023-12-07T02:08:45;29.90;;;17.40;;
2860;SDS011;1438;50.922;6.704;2023-12-07T02:11:11;28.95;;;17.00;;
2860;SDS011;1438;50.922;6.704;2023-12-07T02:13:37;34.13;;;19.80;;
2860;SDS011;1438;50.922;6.704;2023-12-07T02:16:48;28.17;;;17.77;;
2860;SDS011;1438;50.922;6.704;2023-12-07T02:18:57;29.65;;;17.73;;
2860;SDS011;1438;50.922;6.704;2023-12-07T02:21:25;31.60;;;18.20;;
2860;SDS011;1438;50.922;6.704;2023-12-07T02:23:56;31.02;;;18.00;;
2860;SDS011;1438;50.922;6.704;2023-12-07T02:26:28;30.95;;;19.10;;
2860;SDS011;1438;50.922;6.704;2023-12-07T02:28:56;35.92;;;17.42;;
2860;SDS011;1438;50.922;6.704;2023-12-07T02:31:21;30.90;;;17.33;;
2860;SDS011;1438;50.922;6.704;2023-12-07T02:33:48;34.30;;;18.98;;
2860;SDS011;1438;50.922;6.704;2023-12-07T02:36:15;31.48;;;17.95;;
2860;SDS011;1438;50.922;6.704;2023-12-07T02:38:42;32.83;;;19.95;;
2860;SDS011;1438;50.922;6.704;2023-12-07T02:41:09;30.42;;;20.05;;
2860;SDS011;1438;50.922;6.704;2023-12-07T02:43:35;32.88;;;19.63;;
2860;SDS011;1438;50.922;6.704;2023-12-07T02:46:02;36.42;;;20.25;;
2860;SDS011;1438;50.922;6.704;2023-12-07T02:48:28;32.58;;;19.98;;
2860;SDS011;1438;50.922;6.704;2023-12-07T02:50:55;36.40;;;21.85;;
2860;SDS011;1438;50.922;6.704;2023-12-07T02:53:21;35.30;;;21.30;;
2860;SDS011;1438;50.922;6.704;2023-12-07T02:55:47;30.98;;;18.38;;
2860;SDS011;1438;50.922;6.704;2023-12-07T02:58:13;34.80;;;21.27;;
2860;SDS011;1438;50.922;6.704;2023-12-07T03:00:39;31.13;;;19.80;;
2860;SDS011;1438;50.922;6.704;2023-12-07T03:03:05;34.75;;;19.58;;
2860;SDS011;1438;50.922;6.704;2023-12-07T03:05:31;38.38;;;22.33;;
2860;SDS011;1438;50.922;6.704;2023-12-07T03:07:57;39.50;;;20.83;;
2860;SDS011;1438;50.922;6.704;2023-12-07T03:10:23;39.05;;;21.95;;
2860;SDS011;1438;50.922;6.704;2023-12-07T03:12:49;36.13;;;21.23;;
2860;SDS011;1438;50.922;6.704;2023-12-07T03:15:15;35.70;;;22.87;;
2860;SDS011;1438;50.922;6.704;2023-12-07T03:17:41;46.47;;;21.40;;
2860;SDS011;1438;50.922;6.704;2023-12-07T03:20:08;39.00;;;21.45;;
2860;SDS011;1438;50.922;6.704;2023-12-07T03:22:35;39.78;;;20.35;;
2860;SDS011;1438;50.922;6.704;2023-12-07T03:25:01;42.53;;;21.10;;
2860;SDS011;1438;50.922;6.704;2023-12-07T03:27:27;39.65;;;21.65;;
2860;SDS011;1438;50.922;6.704;2023-12-07T03:29:53;38.53;;;21.90;;
2860;SDS011;1438;50.922;6.704;2023-12-07T03:32:19;33.50;;;20.33;;
2860;SDS011;1438;50.922;6.704;2023-12-07T03:34:45;37.50;;;20.60;;
2860;SDS011;1438;50.922;6.704;2023-12-07T03:37:11;41.67;;;20.53;;
2860;SDS011;1438;50.922;6.704;2023-12-07T03:39:37;36.97;;;21.65;;
2860;SDS011;1438;50.922;6.704;2023-12-07T03:42:03;43.25;;;20.73;;
2860;SDS011;1438;50.922;6.704;2023-12-07T03:44:29;43.33;;;24.40;;
2860;SDS011;1438;50.922;6.704;2023-12-07T03:46:55;31.20;;;19.85;;
2860;SDS011;1438;50.922;6.704;2023-12-07T03:49:21;40.67;;;22.38;;
2860;SDS011;1438;50.922;6.704;2023-12-07T03:51:47;36.67;;;20.80;;
2860;SDS011;1438;50.922;6.704;2023-12-07T03:54:13;35.75;;;20.95;;
2860;SDS011;1438;50.922;6.704;2023-12-07T03:56:39;38.93;;;20.93;;
2860;SDS011;1438;50.922;6.704;2023-12-07T03:59:05;34.42;;;18.95;;
2860;SDS011;1438;50.922;6.704;2023-12-07T04:01:31;32.75;;;19.58;;
2860;SDS011;1438;50.922;6.704;2023-12-07T04:03:57;38.38;;;20.10;;
2860;SDS011;1438;50.922;6.704;2023-12-07T04:06:25;36.83;;;19.92;;
2860;SDS011;1438;50.922;6.704;2023-12-07T04:08:51;32.50;;;19.40;;
2860;SDS011;1438;50.922;6.704;2023-12-07T04:11:17;32.25;;;19.08;;
2860;SDS011;1438;50.922;6.704;2023-12-07T04:13:43;33.88;;;18.75;;
2860;SDS011;1438;50.922;6.704;2023-12-07T04:16:09;35.35;;;20.42;;
2860;SDS011;1438;50.922;6.704;2023-12-07T04:18:35;38.05;;;18.55;;
2860;SDS011;1438;50.922;6.704;2023-12-07T04:21:01;34.38;;;20.45;;
2860;SDS011;1438;50.922;6.704;2023-12-07T04:23:28;37.85;;;19.58;;
2860;SDS011;1438;50.922;6.704;2023-12-07T04:25:54;35.28;;;19.17;;
2860;SDS011;1438;50.922;6.704;2023-12-07T04:28:20;28.15;;;17.80;;
2860;SDS011;1438;50.922;6.704;2023-12-07T04:30:46;27.53;;;16.50;;
2860;SDS011;1438;50.922;6.704;2023-12-07T04:33:12;26.83;;;17.13;;
2860;SDS011;1438;50.922;6.704;2023-12-07T04:35:38;40.65;;;18.02;;
2860;SDS011;1438;50.922;6.704;2023-12-07T04:38:04;28.20;;;15.97;;
2860;SDS011;1438;50.922;6.704;2023-12-07T04:40:30;25.80;;;16.00;;
2860;SDS011;1438;50.922;6.704;2023-12-07T04:42:56;32.73;;;16.17;;
2860;SDS011;1438;50.922;6.704;2023-12-07T04:45:22;25.47;;;15.73;;
2860;SDS011;1438;50.922;6.704;2023-12-07T04:47:48;30.60;;;16.20;;
2860;SDS011;1438;50.922;6.704;2023-12-07T04:50:14;31.87;;;17.77;;
2860;SDS011;1438;50.922;6.704;2023-12-07T04:52:40;27.77;;;14.48;;
2860;SDS011;1438;50.922;6.704;2023-12-07T04:55:06;23.17;;;14.50;;
2860;SDS011;1438;50.922;6.704;2023-12-07T04:57:35;26.77;;;14.48;;
2860;SDS011;1438;50.922;6.704;2023-12-07T05:00:04;23.88;;;16.17;;
2860;SDS011;1438;50.922;6.704;2023-12-07T05:02:31;30.08;;;16.08;;
2860;SDS011;1438;50.922;6.704;2023-12-07T05:04:57;26.75;;;14.60;;
2860;SDS011;1438;50.922;6.704;2023-12-07T05:07:23;26.65;;;14.88;;
2860;SDS011;1438;50.922;6.704;2023-12-07T05:09:49;23.70;;;14.23;;
2860;SDS011;1438;50.922;6.704;2023-12-07T05:12:16;22.45;;;13.85;;
2860;SDS011;1438;50.922;6.704;2023-12-07T05:14:42;28.20;;;15.05;;
2860;SDS011;1438;50.922;6.704;2023-12-07T05:17:07;25.53;;;13.10;;
2860;SDS011;1438;50.922;6.704;2023-12-07T05:19:34;20.50;;;13.57;;
2860;SDS011;1438;50.922;6.704;2023-12-07T05:22:00;30.40;;;14.10;;
2860;SDS011;1438;50.922;6.704;2023-12-07T05:24:26;24.42;;;14.35;;
2860;SDS011;1438;50.922;6.704;2023-12-07T05:26:52;29.25;;;16.05;;
2860;SDS011;1438;50.922;6.704;2023-12-07T05:29:18;30.70;;;15.43;;
2860;SDS011;1438;50.922;6.704;2023-12-07T05:31:44;24.35;;;13.57;;
2860;SDS011;1438;50.922;6.704;2023-12-07T05:34:10;23.10;;;13.93;;
2860;SDS011;1438;50.922;6.704;2023-12-07T05:36:36;21.45;;;13.82;;
2860;SDS011;1438;50.922;6.704;2023-12-07T05:39:02;23.98;;;14.77;;
2860;SDS011;1438;50.922;6.704;2023-12-07T05:41:28;24.63;;;13.95;;
2860;SDS011;1438;50.922;6.704;2023-12-07T05:43:54;21.70;;;13.68;;
2860;SDS011;1438;50.922;6.704;2023-12-07T05:46:20;27.77;;;15.60;;
2860;SDS011;1438;50.922;6.704;2023-12-07T05:48:46;32.20;;;14.45;;
2860;SDS011;1438;50.922;6.704;2023-12-07T05:51:15;29.08;;;14.68;;
2860;SDS011;1438;50.922;6.704;2023-12-07T05:53:42;30.45;;;14.13;;
2860;SDS011;1438;50.922;6.704;2023-12-07T05:56:08;24.75;;;15.68;;
2860;SDS011;1438;50.922;6.704;2023-12-07T05:58:34;25.50;;;15.05;;
2860;SDS011;1438;50.922;6.704;2023-12-07T06:01:00;26.55;;;14.40;;
2860;SDS011;1438;50.922;6.704;2023-12-07T06:03:27;25.60;;;14.10;;
2860;SDS011;1438;50.922;6.704;2023-12-07T06:05:53;28.38;;;14.88;;
2860;SDS011;1438;50.922;6.704;2023-12-07T06:08:19;32.73;;;14.63;;
2860;SDS011;1438;50.922;6.704;2023-12-07T06:10:45;29.92;;;17.23;;
2860;SDS011;1438;50.922;6.704;2023-12-07T06:13:12;30.52;;;15.85;;
2860;SDS011;1438;50.922;6.704;2023-12-07T06:15:39;30.88;;;14.82;;
2860;SDS011;1438;50.922;6.704;2023-12-07T06:18:05;23.73;;;14.05;;
2860;SDS011;1438;50.922;6.704;2023-12-07T06:20:31;31.27;;;15.75;;
2860;SDS011;1438;50.922;6.704;2023-12-07T06:22:57;23.27;;;14.05;;
2860;SDS011;1438;50.922;6.704;2023-12-07T06:25:23;24.90;;;13.93;;
2860;SDS011;1438;50.922;6.704;2023-12-07T06:27:49;30.77;;;14.88;;
2860;SDS011;1438;50.922;6.704;2023-12-07T06:30:15;36.95;;;15.00;;
2860;SDS011;1438;50.922;6.704;2023-12-07T06:32:41;25.35;;;15.38;;
2860;SDS011;1438;50.922;6.704;2023-12-07T06:35:07;36.20;;;16.05;;
2860;SDS011;1438;50.922;6.704;2023-12-07T06:37:33;31.35;;;16.55;;
2860;SDS011;1438;50.922;6.704;2023-12-07T06:39:59;24.88;;;14.73;;
2860;SDS011;1438;50.922;6.704;2023-12-07T06:42:26;29.92;;;15.30;;
2860;SDS011;1438;50.922;6.704;2023-12-07T06:44:52;29.40;;;14.13;;
2860;SDS011;1438;50.922;6.704;2023-12-07T06:47:18;34.67;;;16.85;;
2860;SDS011;1438;50.922;6.704;2023-12-07T06:49:44;30.83;;;17.85;;
2860;SDS011;1438;50.922;6.704;2023-12-07T06:52:13;38.92;;;18.42;;
2860;SDS011;1438;50.922;6.704;2023-12-07T06:54:39;28.37;;;15.73;;
2860;SDS011;1438;50.922;6.704;2023-12-07T06:57:05;42.87;;;17.83;;
2860;SDS011;1438;50.922;6.704;2023-12-07T06:59:31;34.22;;;17.05;;
2860;SDS011;1438;50.922;6.704;2023-12-07T07:01:57;35.53;;;18.73;;
2860;SDS011;1438;50.922;6.704;2023-12-07T07:04:23;37.33;;;18.77;;
2860;SDS011;1438;50.922;6.704;2023-12-07T07:06:49;35.53;;;19.48;;
2860;SDS011;1438;50.922;6.704;2023-12-07T07:09:16;30.65;;;16.55;;
2860;SDS011;1438;50.922;6.704;2023-12-07T07:11:47;40.70;;;18.40;;
2860;SDS011;1438;50.922;6.704;2023-12-07T07:14:13;35.25;;;18.77;;
2860;SDS011;1438;50.922;6.704;2023-12-07T07:16:40;35.08;;;18.27;;
2860;SDS011;1438;50.922;6.704;2023-12-07T07:19:06;34.17;;;17.67;;
2860;SDS011;1438;50.922;6.704;2023-12-07T07:21:32;39.05;;;17.25;;
2860;SDS011;1438;50.922;6.704;2023-12-07T07:23:58;40.65;;;19.90;;
2860;SDS011;1438;50.922;6.704;2023-12-07T07:26:24;35.83;;;19.23;;
2860;SDS011;1438;50.922;6.704;2023-12-07T07:28:50;34.43;;;17.50;;
2860;SDS011;1438;50.922;6.704;2023-12-07T07:31:16;38.10;;;19.33;;
2860;SDS011;1438;50.922;6.704;2023-12-07T07:33:43;35.88;;;18.73;;
2860;SDS011;1438;50.922;6.704;2023-12-07T07:36:09;44.22;;;20.63;;
2860;SDS011;1438;50.922;6.704;2023-12-07T07:38:36;40.10;;;22.45;;
2860;SDS011;1438;50.922;6.704;2023-12-07T07:41:02;45.00;;;19.80;;
2860;SDS011;1438;50.922;6.704;2023-12-07T07:43:28;35.47;;;19.23;;
2860;SDS011;1438;50.922;6.704;2023-12-07T07:45:54;36.67;;;19.45;;
2860;SDS011;1438;50.922;6.704;2023-12-07T07:48:20;41.88;;;20.10;;
2860;SDS011;1438;50.922;6.704;2023-12-07T07:50:47;41.38;;;19.17;;
2860;SDS011;1438;50.922;6.704;2023-12-07T07:53:13;38.75;;;19.42;;
2860;SDS011;1438;50.922;6.704;2023-12-07T07:55:39;39.75;;;20.65;;
2860;SDS011;1438;50.922;6.704;2023-12-07T07:58:05;43.30;;;22.83;;
2860;SDS011;1438;50.922;6.704;2023-12-07T08:00:31;45.00;;;20.77;;
2860;SDS011;1438;50.922;6.704;2023-12-07T08:02:58;48.92;;;24.08;;
2860;SDS011;1438;50.922;6.704;2023-12-07T08:05:24;41.13;;;21.80;;
2860;SDS011;1438;50.922;6.704;2023-12-07T08:07:50;48.90;;;20.40;;
2860;SDS011;1438;50.922;6.704;2023-12-07T08:10:16;40.83;;;21.30;;
2860;SDS011;1438;50.922;6.704;2023-12-07T08:12:42;36.60;;;18.10;;
2860;SDS011;1438;50.922;6.704;2023-12-07T08:15:09;41.60;;;21.15;;
2860;SDS011;1438;50.922;6.704;2023-12-07T08:17:44;45.75;;;22.45;;
2860;SDS011;1438;50.922;6.704;2023-12-07T08:20:11;42.05;;;19.30;;
2860;SDS011;1438;50.922;6.704;2023-12-07T08:22:38;50.38;;;21.27;;
2860;SDS011;1438;50.922;6.704;2023-12-07T08:25:04;40.50;;;19.20;;
2860;SDS011;1438;50.922;6.704;2023-12-07T08:27:33;42.10;;;19.92;;
2860;SDS011;1438;50.922;6.704;2023-12-07T08:30:00;41.75;;;20.92;;
2860;SDS011;1438;50.922;6.704;2023-12-07T08:32:26;38.15;;;20.23;;
2860;SDS011;1438;50.922;6.704;2023-12-07T08:34:52;58.65;;;22.27;;
2860;SDS011;1438;50.922;6.704;2023-12-07T08:37:19;46.17;;;20.88;;
2860;SDS011;1438;50.922;6.704;2023-12-07T08:39:45;47.35;;;20.10;;
2860;SDS011;1438;50.922;6.704;2023-12-07T08:42:11;52.58;;;22.88;;
2860;SDS011;1438;50.922;6.704;2023-12-07T08:44:37;48.75;;;20.73;;
2860;SDS011;1438;50.922;6.704;2023-12-07T08:47:04;63.15;;;21.35;;
2860;SDS011;1438;50.922;6.704;2023-12-07T08:49:30;49.13;;;22.75;;
2860;SDS011;1438;50.922;6.704;2023-12-07T08:51:56;48.90;;;22.70;;
2860;SDS011;1438;50.922;6.704;2023-12-07T08:54:22;42.75;;;20.00;;
2860;SDS011;1438;50.922;6.704;2023-12-07T08:56:48;48.00;;;22.50;;
2860;SDS011;1438;50.922;6.704;2023-12-07T08:59:14;52.47;;;23.38;;
2860;SDS011;1438;50.922;6.704;2023-12-07T09:01:40;43.60;;;21.37;;
2860;SDS011;1438;50.922;6.704;2023-12-07T09:04:06;46.70;;;21.67;;
2860;SDS011;1438;50.922;6.704;2023-12-07T09:06:32;46.17;;;23.10;;
2860;SDS011;1438;50.922;6.704;2023-12-07T09:08:58;50.80;;;21.30;;
2860;SDS011;1438;50.922;6.704;2023-12-07T09:11:24;48.33;;;22.38;;
2860;SDS011;1438;50.922;6.704;2023-12-07T09:13:50;49.20;;;22.38;;
2860;SDS011;1438;50.922;6.704;2023-12-07T09:16:16;51.65;;;22.50;;
2860;SDS011;1438;50.922;6.704;2023-12-07T09:18:42;52.97;;;22.65;;
2860;SDS011;1438;50.922;6.704;2023-12-07T09:21:10;47.83;;;21.60;;
2860;SDS011;1438;50.922;6.704;2023-12-07T09:23:36;51.88;;;21.70;;
2860;SDS011;1438;50.922;6.704;2023-12-07T09:26:02;51.40;;;23.08;;
2860;SDS011;1438;50.922;6.704;2023-12-07T09:28:28;46.75;;;21.15;;
2860;SDS011;1438;50.922;6.704;2023-12-07T09:30:54;41.70;;;19.60;;
2860;SDS011;1438;50.922;6.704;2023-12-07T09:33:20;53.03;;;23.55;;
2860;SDS011;1438;50.922;6.704;2023-12-07T09:35:46;54.23;;;20.87;;
2860;SDS011;1438;50.922;6.704;2023-12-07T09:38:12;51.58;;;22.25;;
2860;SDS011;1438;50.922;6.704;2023-12-07T09:40:38;45.97;;;20.17;;
2860;SDS011;1438;50.922;6.704;2023-12-07T09:43:04;53.88;;;23.73;;
2860;SDS011;1438;50.922;6.704;2023-12-07T09:45:30;49.70;;;22.23;;
2860;SDS011;1438;50.922;6.704;2023-12-07T09:47:56;45.42;;;21.20;;
2860;SDS011;1438;50.922;6.704;2023-12-07T09:50:23;50.67;;;22.55;;
2860;SDS011;1438;50.922;6.704;2023-12-07T09:52:58;48.72;;;21.00;;
2860;SDS011;1438;50.922;6.704;2023-12-07T09:55:24;47.78;;;23.33;;
2860;SDS011;1438;50.922;6.704;2023-12-07T09:57:51;45.72;;;19.92;;
2860;SDS011;1438;50.922;6.704;2023-12-07T10:00:19;49.55;;;22.33;;
2860;SDS011;1438;50.922;6.704;2023-12-07T10:02:45;40.40;;;20.60;;
2860;SDS011;1438;50.922;6.704;2023-12-07T10:05:15;42.00;;;20.75;;
2860;SDS011;1438;50.922;6.704;2023-12-07T10:07:42;36.60;;;21.58;;
2860;SDS011;1438;50.922;6.704;2023-12-07T10:10:08;43.28;;;21.60;;
2860;SDS011;1438;50.922;6.704;2023-12-07T10:12:40;42.97;;;21.35;;
2860;SDS011;1438;50.922;6.704;2023-12-07T10:15:11;43.75;;;21.35;;
2860;SDS011;1438;50.922;6.704;2023-12-07T10:17:49;33.17;;;20.58;;
2860;SDS011;1438;50.922;6.704;2023-12-07T10:20:16;40.55;;;21.98;;
2860;SDS011;1438;50.922;6.704;2023-12-07T10:22:42;32.08;;;19.75;;
2860;SDS011;1438;50.922;6.704;2023-12-07T10:25:09;33.22;;;20.20;;
2860;SDS011;1438;50.922;6.704;2023-12-07T10:27:35;33.45;;;17.88;;
2860;SDS011;1438;50.922;6.704;2023-12-07T10:30:03;31.40;;;19.23;;
2860;SDS011;1438;50.922;6.704;2023-12-07T10:32:29;28.52;;;19.35;;
2860;SDS011;1438;50.922;6.704;2023-12-07T10:34:55;30.67;;;20.20;;
2860;SDS011;1438;50.922;6.704;2023-12-07T10:37:23;27.33;;;17.65;;
2860;SDS011;1438;50.922;6.704;2023-12-07T10:39:49;23.53;;;15.67;;
2860;SDS011;1438;50.922;6.704;2023-12-07T10:42:15;28.73;;;18.30;;
2860;SDS011;1438;50.922;6.704;2023-12-07T10:44:42;26.35;;;17.45;;
2860;SDS011;1438;50.922;6.704;2023-12-07T10:47:11;29.42;;;17.25;;
2860;SDS011;1438;50.922;6.704;2023-12-07T10:49:38;21.33;;;15.15;;
2860;SDS011;1438;50.922;6.704;2023-12-07T10:52:08;22.05;;;15.40;;
2860;SDS011;1438;50.922;6.704;2023-12-07T10:54:41;21.50;;;16.13;;
2860;SDS011;1438;50.922;6.704;2023-12-07T10:57:09;23.95;;;15.48;;
2860;SDS011;1438;50.922;6.704;2023-12-07T10:59:36;19.80;;;15.75;;
2860;SDS011;1438;50.922;6.704;2023-12-07T11:02:02;19.73;;;13.52;;
2860;SDS011;1438;50.922;6.704;2023-12-07T11:04:31;23.10;;;13.55;;
2860;SDS011;1438;50.922;6.704;2023-12-07T11:06:59;25.03;;;14.23;;
2860;SDS011;1438;50.922;6.704;2023-12-07T11:09:30;17.73;;;12.50;;
2860;SDS011;1438;50.922;6.704;2023-12-07T11:12:03;20.02;;;12.70;;
2860;SDS011;1438;50.922;6.704;2023-12-07T11:14:32;16.20;;;12.30;;
2860;SDS011;1438;50.922;6.704;2023-12-07T11:16:58;14.02;;;11.90;;
2860;SDS011;1438;50.922;6.704;2023-12-07T11:21:57;17.52;;;13.10;;
2860;SDS011;1438;50.922;6.704;2023-12-07T11:24:24;20.55;;;11.98;;
2860;SDS011;1438;50.922;6.704;2023-12-07T11:26:53;14.30;;;10.77;;
2860;SDS011;1438;50.922;6.704;2023-12-07T11:29:20;11.65;;;9.50;;
2860;SDS011;1438;50.922;6.704;2023-12-07T11:31:48;12.07;;;9.35;;
2860;SDS011;1438;50.922;6.704;2023-12-07T11:34:29;13.77;;;9.70;;
2860;SDS011;1438;50.922;6.704;2023-12-07T11:36:59;11.68;;;7.47;;
2860;SDS011;1438;50.922;6.704;2023-12-07T11:39:25;10.30;;;7.77;;
2860;SDS011;1438;50.922;6.704;2023-12-07T11:41:53;11.82;;;8.65;;
2860;SDS011;1438;50.922;6.704;2023-12-07T11:44:21;14.43;;;10.10;;
2860;SDS011;1438;50.922;6.704;2023-12-07T11:46:49;11.63;;;9.18;;
2860;SDS011;1438;50.922;6.704;2023-12-07T11:49:15;12.20;;;8.63;;
2860;SDS011;1438;50.922;6.704;2023-12-07T11:51:42;12.25;;;8.90;;
2860;SDS011;1438;50.922;6.704;2023-12-07T11:54:08;10.77;;;8.30;;
2860;SDS011;1438;50.922;6.704;2023-12-07T11:56:36;8.77;;;7.68;;
2860;SDS011;1438;50.922;6.704;2023-12-07T11:59:02;10.60;;;7.85;;
2860;SDS011;1438;50.922;6.704;2023-12-07T12:01:28;10.30;;;7.40;;
2860;SDS011;1438;50.922;6.704;2023-12-07T12:03:55;11.73;;;7.43;;
2860;SDS011;1438;50.922;6.704;2023-12-07T12:06:23;9.13;;;7.90;;
2860;SDS011;1438;50.922;6.704;2023-12-07T12:08:49;10.30;;;6.85;;
2860;SDS011;1438;50.922;6.704;2023-12-07T12:11:15;9.10;;;6.65;;
2860;SDS011;1438;50.922;6.704;2023-12-07T12:13:41;12.00;;;8.43;;
2860;SDS011;1438;50.922;6.704;2023-12-07T12:16:07;9.00;;;7.03;;
2860;SDS011;1438;50.922;6.704;2023-12-07T12:18:33;9.93;;;7.07;;
2860;SDS011;1438;50.922;6.704;2023-12-07T12:21:00;9.10;;;7.60;;
2860;SDS011;1438;50.922;6.704;2023-12-07T12:23:26;8.80;;;6.85;;
2860;SDS011;1438;50.922;6.704;2023-12-07T12:25:52;10.82;;;7.63;;
2860;SDS011;1438;50.922;6.704;2023-12-07T12:28:18;8.75;;;6.93;;
2860;SDS011;1438;50.922;6.704;2023-12-07T12:30:46;10.68;;;7.50;;
2860;SDS011;1438;50.922;6.704;2023-12-07T12:33:13;8.18;;;7.30;;
2860;SDS011;1438;50.922;6.704;2023-12-07T12:35:39;12.00;;;7.60;;
2860;SDS011;1438;50.922;6.704;2023-12-07T12:38:08;9.90;;;7.90;;
2860;SDS011;1438;50.922;6.704;2023-12-07T12:40:36;10.20;;;7.50;;
2860;SDS011;1438;50.922;6.704;2023-12-07T12:43:01;10.18;;;7.50;;
2860;SDS011;1438;50.922;6.704;2023-12-07T12:45:27;11.40;;;7.23;;
2860;SDS011;1438;50.922;6.704;2023-12-07T12:47:53;9.93;;;7.10;;
2860;SDS011;1438;50.922;6.704;2023-12-07T12:50:36;8.45;;;6.78;;
2860;SDS011;1438;50.922;6.704;2023-12-07T12:53:03;10.23;;;7.72;;
2860;SDS011;1438;50.922;6.704;2023-12-07T12:55:30;10.80;;;8.13;;
2860;SDS011;1438;50.922;6.704;2023-12-07T12:57:56;9.18;;;7.60;;
2860;SDS011;1438;50.922;6.704;2023-12-07T13:00:24;8.63;;;6.65;;
2860;SDS011;1438;50.922;6.704;2023-12-07T13:02:50;8.90;;;6.85;;
2860;SDS011;1438;50.922;6.704;2023-12-07T13:05:16;9.70;;;6.90;;
2860;SDS011;1438;50.922;6.704;2023-12-07T13:07:45;9.47;;;6.70;;
2860;SDS011;1438;50.922;6.704;2023-12-07T13:10:13;8.73;;;7.07;;
2860;SDS011;1438;50.922;6.704;2023-12-07T13:12:39;9.30;;;6.50;;
2860;SDS011;1438;50.922;6.704;2023-12-07T13:15:05;9.80;;;7.43;;
2860;SDS011;1438;50.922;6.704;2023-12-07T13:17:32;10.38;;;8.45;;
2860;SDS011;1438;50.922;6.704;2023-12-07T13:19:57;11.00;;;7.37;;
2860;SDS011;1438;50.922;6.704;2023-12-07T13:22:23;13.20;;;8.30;;
2860;SDS011;1438;50.922;6.704;2023-12-07T13:24:49;11.63;;;8.43;;
2860;SDS011;1438;50.922;6.704;2023-12-07T13:27:15;9.68;;;7.30;;
2860;SDS011;1438;50.922;6.704;2023-12-07T13:29:43;12.45;;;7.80;;
2860;SDS011;1438;50.922;6.704;2023-12-07T13:32:09;9.52;;;7.57;;
2860;SDS011;1438;50.922;6.704;2023-12-07T13:34:35;11.57;;;8.53;;
2860;SDS011;1438;50.922;6.704;2023-12-07T13:37:00;15.80;;;7.72;;
2860;SDS011;1438;50.922;6.704;2023-12-07T13:39:26;11.43;;;9.73;;
2860;SDS011;1438;50.922;6.704;2023-12-07T13:41:54;13.38;;;9.38;;
2860;SDS011;1438;50.922;6.704;2023-12-07T13:44:20;11.63;;;9.37;;
2860;SDS011;1438;50.922;6.704;2023-12-07T13:46:46;15.48;;;10.25;;
2860;SDS011;1438;50.922;6.704;2023-12-07T13:49:13;16.42;;;9.88;;
2860;SDS011;1438;50.922;6.704;2023-12-07T13:51:42;14.70;;;9.57;;
2860;SDS011;1438;50.922;6.704;2023-12-07T13:54:09;13.70;;;9.52;;
2860;SDS011;1438;50.922;6.704;2023-12-07T13:56:35;9.07;;;7.90;;
2860;SDS011;1438;50.922;6.704;2023-12-07T13:59:01;11.50;;;8.27;;
2860;SDS011;1438;50.922;6.704;2023-12-07T14:01:27;9.47;;;7.73;;
2860;SDS011;1438;50.922;6.704;2023-12-07T14:03:53;12.10;;;9.35;;
2860;SDS011;1438;50.922;6.704;2023-12-07T14:06:24;10.98;;;8.48;;
2860;SDS011;1438;50.922;6.704;2023-12-07T14:08:50;12.25;;;8.15;;
2860;SDS011;1438;50.922;6.704;2023-12-07T14:11:19;15.65;;;10.00;;
2860;SDS011;1438;50.922;6.704;2023-12-07T14:13:45;16.10;;;9.00;;
2860;SDS011;1438;50.922;6.704;2023-12-07T14:16:12;12.27;;;8.93;;
2860;SDS011;1438;50.922;6.704;2023-12-07T14:18:38;11.00;;;8.55;;
2860;SDS011;1438;50.922;6.704;2023-12-07T14:21:04;14.23;;;9.50;;
2860;SDS011;1438;50.922;6.704;2023-12-07T14:23:30;12.15;;;8.43;;
2860;SDS011;1438;50.922;6.704;2023-12-07T14:25:56;13.25;;;8.27;;
2860;SDS011;1438;50.922;6.704;2023-12-07T14:28:25;13.18;;;9.05;;
2860;SDS011;1438;50.922;6.704;2023-12-07T14:30:53;14.05;;;8.77;;
2860;SDS011;1438;50.922;6.704;2023-12-07T14:33:21;20.65;;;8.90;;
2860;SDS011;1438;50.922;6.704;2023-12-07T14:35:47;17.15;;;10.73;;
2860;SDS011;1438;50.922;6.704;2023-12-07T14:38:14;13.30;;;9.57;;
2860;SDS011;1438;50.922;6.704;2023-12-07T14:40:40;17.52;;;10.40;;
2860;SDS011;1438;50.922;6.704;2023-12-07T14:43:06;17.92;;;10.65;;
2860;SDS011;1438;50.922;6.704;2023-12-07T14:45:32;13.35;;;9.85;;
2860;SDS011;1438;50.922;6.704;2023-12-07T14:47:57;15.03;;;9.10;;
2860;SDS011;1438;50.922;6.704;2023-12-07T14:50:24;14.43;;;9.50;;